Time;durP1;ratioP1;P1;durP2;ratioP2;P2;SDS_P1;SDS_P2;PMS_P1;PMS_P2;Temp;Humidity;BMP_temperature;BMP_pressure;BME280_temperature;BME280_humidity;BME280_pressure;Samples;Min_cycle;Max_cycle;Signal;HPM_P1;HPM_P2
2021/04/02 00:01:47;;;;;;;12.75;4.32;;;7.00;99.90;;;;;;12346992;28;20050;-41
2021/04/02 00:07:49;;;;;;;13.93;4.75;;;7.00;99.90;;;;;;12352984;28;20084;-41
2021/04/02 00:13:50;;;;;;;17.25;5.25;;;6.90;99.90;;;;;;12346378;28;20161;-41
2021/04/02 00:19:51;;;;;;;11.52;4.45;;;6.90;99.90;;;;;;12357708;28;20165;-42
2021/04/02 00:25:54;;;;;;;13.88;4.03;;;6.90;99.90;;;;;;12349024;28;21811;-41
2021/04/02 00:31:58;;;;;;;15.25;4.82;;;7.00;99.90;;;;;;12347177;28;20513;-41
2021/04/02 00:38:00;;;;;;;12.70;5.07;;;6.90;99.90;;;;;;12335468;28;20046;-41
2021/04/02 00:44:01;;;;;;;10.68;4.15;;;6.90;99.90;;;;;;12356382;28;20524;-41
2021/04/02 00:50:11;;;;;;;12.38;4.30;;;6.90;99.90;;;;;;12353259;28;20133;-43
2021/04/02 00:56:14;;;;;;;10.95;3.83;;;6.90;99.90;;;;;;12352708;28;20056;-41
2021/04/02 01:02:15;;;;;;;6.72;3.20;;;7.00;99.90;;;;;;12351042;28;20053;-42
2021/04/02 01:08:22;;;;;;;11.43;3.65;;;7.00;99.90;;;;;;12349065;28;20425;-41
2021/04/02 01:14:23;;;;;;;7.90;3.58;;;6.90;99.90;;;;;;12338941;28;20081;-43
2021/04/02 01:20:29;;;;;;;13.55;4.97;;;6.90;99.90;;;;;;12351964;28;20498;-41
2021/04/02 01:26:33;;;;;;;13.20;4.95;;;6.80;99.90;;;;;;12348940;28;20149;-40
2021/04/02 01:32:41;;;;;;;19.20;5.43;;;6.60;99.90;;;;;;12349455;28;20781;-41
2021/04/02 01:38:43;;;;;;;9.70;4.80;;;6.60;99.90;;;;;;12352734;28;20690;-41
2021/04/02 01:44:47;;;;;;;10.25;4.60;;;6.60;99.90;;;;;;12338961;28;20085;-42
2021/04/02 01:50:51;;;;;;;8.43;5.00;;;6.60;99.90;;;;;;12348233;28;20043;-41
2021/04/02 01:56:53;;;;;;;15.85;5.85;;;6.30;99.90;;;;;;12350825;28;20101;-42
2021/04/02 02:02:57;;;;;;;10.60;6.03;;;6.40;99.90;;;;;;12352415;28;20536;-41
2021/04/02 02:08:59;;;;;;;16.38;5.93;;;6.40;99.90;;;;;;12346986;28;20125;-41
2021/04/02 02:15:01;;;;;;;15.13;5.80;;;6.30;99.90;;;;;;12345740;28;20054;-43
2021/04/02 02:21:07;;;;;;;14.88;6.50;;;6.30;99.90;;;;;;12351502;28;20157;-41
2021/04/02 02:27:09;;;;;;;11.75;6.00;;;6.40;99.90;;;;;;12348793;28;20192;-42
2021/04/02 02:33:12;;;;;;;17.00;6.45;;;6.40;99.90;;;;;;12337918;28;20149;-42
2021/04/02 02:39:16;;;;;;;15.82;6.55;;;6.30;99.90;;;;;;12343778;28;20056;-41
2021/04/02 02:45:18;;;;;;;14.37;7.07;;;6.20;99.90;;;;;;12335419;28;20049;-41
2021/04/02 02:51:21;;;;;;;14.85;8.00;;;6.10;99.90;;;;;;12346584;28;20133;-41
2021/04/02 02:57:24;;;;;;;20.13;7.05;;;5.90;99.90;;;;;;12351938;28;20081;-41
2021/04/02 03:03:26;;;;;;;15.15;7.53;;;5.70;99.90;;;;;;12347512;28;20141;-41
2021/04/02 03:09:29;;;;;;;13.85;7.57;;;5.60;99.90;;;;;;12363216;28;20061;-41
2021/04/02 03:15:33;;;;;;;11.13;7.78;;;5.50;99.90;;;;;;12356644;28;20475;-42
2021/04/02 03:21:36;;;;;;;18.95;7.60;;;5.40;99.90;;;;;;12360911;28;20038;-40
2021/04/02 03:27:39;;;;;;;18.35;8.65;;;5.30;99.90;;;;;;12352088;28;20145;-43
2021/04/02 03:33:55;;;;;;;19.77;9.03;;;5.20;99.90;;;;;;12361694;28;20435;-43
2021/04/02 03:39:57;;;;;;;;;;;5.20;99.90;;;;;;12350862;28;20325;-41
2021/04/02 03:46:00;;;;;;;17.23;8.02;;;5.20;99.90;;;;;;12349742;28;19936;-41
2021/04/02 03:52:06;;;;;;;22.30;8.70;;;5.20;99.90;;;;;;12359295;28;20061;-41
2021/04/02 03:58:12;;;;;;;20.80;8.95;;;5.10;99.90;;;;;;12361677;28;20465;-41
2021/04/02 04:04:15;;;;;;;17.83;9.07;;;4.90;99.90;;;;;;12359595;28;20050;-42
2021/04/02 04:10:19;;;;;;;;;;;5.00;99.90;;;;;;12355918;28;20073;-41
2021/04/02 04:16:23;;;;;;;18.17;9.43;;;4.90;99.90;;;;;;12354163;28;19965;-41
2021/04/02 04:22:27;;;;;;;17.92;10.27;;;5.10;99.90;;;;;;12353969;28;20184;-41
2021/04/02 04:28:32;;;;;;;17.92;9.75;;;5.10;99.90;;;;;;12355987;28;20474;-41
2021/04/02 04:34:34;;;;;;;;;;;5.20;99.90;;;;;;12343099;28;20050;-41
2021/04/02 04:40:36;;;;;;;15.73;8.75;;;5.40;99.90;;;;;;12345708;28;19926;-41
2021/04/02 04:46:37;;;;;;;18.38;9.25;;;5.60;99.90;;;;;;12357379;28;20050;-41
2021/04/02 04:53:03;;;;;;;15.63;9.02;;;5.50;99.90;;;;;;12366212;28;20463;-41
2021/04/02 04:59:08;;;;;;;18.48;10.25;;;5.50;99.90;;;;;;12361233;28;20164;-42
2021/04/02 05:05:17;;;;;;;14.35;9.35;;;5.30;99.90;;;;;;12367749;28;20165;-42
2021/04/02 05:11:21;;;;;;;17.27;10.40;;;5.30;99.90;;;;;;12368691;28;20111;-42
2021/04/02 05:17:22;;;;;;;22.13;10.67;;;5.20;99.90;;;;;;12352503;28;20068;-41
2021/04/02 05:23:24;;;;;;;16.02;10.38;;;5.40;99.90;;;;;;12363962;28;20072;-43
2021/04/02 05:29:25;;;;;;;16.38;10.35;;;5.40;99.90;;;;;;12356940;28;20570;-41
2021/04/02 05:35:26;;;;;;;16.55;10.63;;;5.50;99.90;;;;;;12361929;28;20121;-41
2021/04/02 05:41:34;;;;;;;15.75;10.07;;;5.40;99.90;;;;;;12344499;28;20046;-42
2021/04/02 05:47:36;;;;;;;19.23;11.65;;;5.50;99.90;;;;;;12356267;28;20049;-41
2021/04/02 05:53:38;;;;;;;16.42;10.45;;;5.50;99.90;;;;;;12356240;28;20141;-43
2021/04/02 05:59:42;;;;;;;15.13;9.68;;;5.40;99.90;;;;;;12344942;28;20042;-41
2021/04/02 06:05:44;;;;;;;14.95;10.65;;;5.50;99.90;;;;;;12352827;28;20078;-41
2021/04/02 06:11:46;;;;;;;18.98;11.73;;;5.60;99.90;;;;;;12352167;28;20236;-41
2021/04/02 06:18:06;;;;;;;19.48;11.95;;;5.50;99.90;;;;;;12347819;28;20137;-41
2021/04/02 06:24:11;;;;;;;19.70;12.57;;;5.50;99.90;;;;;;12357840;28;20046;-41
2021/04/02 06:30:16;;;;;;;18.70;11.98;;;5.40;99.90;;;;;;12349332;28;20058;-43
2021/04/02 06:36:19;;;;;;;;;;;5.60;99.90;;;;;;12341762;28;20077;-43
2021/04/02 06:42:30;;;;;;;16.52;11.48;;;5.50;99.90;;;;;;12367365;28;19930;-41
2021/04/02 06:48:31;;;;;;;21.25;12.23;;;5.60;99.90;;;;;;12366678;28;20060;-41
2021/04/02 06:54:32;;;;;;;22.92;12.25;;;5.70;99.90;;;;;;12368522;28;20746;-41
2021/04/02 07:00:36;;;;;;;17.73;12.05;;;5.70;99.90;;;;;;12352951;28;20047;-43
2021/04/02 07:06:40;;;;;;;19.30;11.27;;;5.50;99.90;;;;;;12366730;28;20065;-41
2021/04/02 07:12:45;;;;;;;18.58;11.00;;;5.60;99.90;;;;;;12354785;28;20129;-42
2021/04/02 07:18:48;;;;;;;16.25;10.18;;;5.70;99.90;;;;;;12373844;28;20054;-42
2021/04/02 07:24:50;;;;;;;14.45;8.57;;;5.60;99.90;;;;;;12380219;28;20092;-41
2021/04/02 07:30:53;;;;;;;16.90;7.45;;;5.60;99.90;;;;;;12361387;28;22861;-41
2021/04/02 07:36:54;;;;;;;19.55;6.80;;;5.60;99.90;;;;;;12369209;28;20133;-41
2021/04/02 07:42:58;;;;;;;12.10;6.60;;;5.70;99.90;;;;;;12344030;28;20057;-41
2021/04/02 07:49:09;;;;;;;15.98;6.65;;;5.80;99.90;;;;;;12368418;28;20070;-41
2021/04/02 07:55:16;;;;;;;12.00;6.07;;;5.90;99.90;;;;;;12367230;28;20457;-43
2021/04/02 08:01:20;;;;;;;12.45;6.47;;;6.00;99.90;;;;;;12361960;28;20081;-41
2021/04/02 08:07:40;;;;;;;16.33;6.03;;;6.30;99.90;;;;;;12347686;28;20137;-41
2021/04/02 08:13:55;;;;;;;12.35;5.47;;;6.40;99.90;;;;;;12346436;28;20046;-42
2021/04/02 08:20:02;;;;;;;;;;;6.50;99.90;;;;;;12357835;28;20137;-41
2021/04/02 08:26:04;;;;;;;11.30;5.20;;;6.50;99.90;;;;;;12366279;28;20326;-41
2021/04/02 08:32:11;;;;;;;13.07;5.32;;;6.60;99.90;;;;;;12349474;28;20150;-41
2021/04/02 08:38:13;;;;;;;8.32;4.20;;;6.70;99.90;;;;;;12349881;28;20108;-42
2021/04/02 08:44:14;;;;;;;9.02;4.07;;;6.90;99.90;;;;;;12338638;28;20142;-41
2021/04/02 08:50:16;;;;;;;9.10;3.83;;;6.80;99.90;;;;;;12359982;28;20173;-41
2021/04/02 08:56:20;;;;;;;10.65;3.28;;;7.10;99.90;;;;;;12365570;28;20052;-42
2021/04/02 09:02:25;;;;;;;7.37;3.33;;;7.10;99.90;;;;;;12357468;28;20082;-43
2021/04/02 09:08:26;;;;;;;9.10;3.28;;;6.80;99.90;;;;;;12360124;28;20072;-42
2021/04/02 09:14:28;;;;;;;8.90;3.28;;;6.50;99.90;;;;;;12348304;28;20076;-46
2021/04/02 09:20:30;;;;;;;11.10;3.40;;;6.20;99.90;;;;;;12364146;28;20639;-42
2021/04/02 09:26:42;;;;;;;10.07;3.75;;;6.30;99.90;;;;;;12372247;28;20457;-43
2021/04/02 09:32:43;;;;;;;6.28;3.13;;;6.40;99.90;;;;;;12361668;28;20041;-43
2021/04/02 09:38:47;;;;;;;10.40;3.38;;;6.10;99.90;;;;;;12364694;28;20481;-42
2021/04/02 09:44:49;;;;;;;13.70;5.00;;;6.10;99.90;;;;;;12347451;28;20141;-42
2021/04/02 09:50:54;;;;;;;19.63;7.18;;;6.00;99.90;;;;;;12372403;28;20164;-43
2021/04/02 09:57:01;;;;;;;18.88;5.88;;;6.00;99.90;;;;;;12363926;28;20129;-42
2021/04/02 10:03:13;;;;;;;11.13;5.80;;;6.10;99.90;;;;;;12365069;28;20069;-44
2021/04/02 10:09:15;;;;;;;10.25;4.25;;;6.10;99.90;;;;;;12366895;28;20444;-42
2021/04/02 10:15:17;;;;;;;8.63;3.40;;;6.50;99.90;;;;;;12362498;28;20200;-43
2021/04/02 10:21:21;;;;;;;11.30;3.60;;;6.90;99.90;;;;;;12360836;28;20055;-44
2021/04/02 10:27:24;;;;;;;15.27;2.90;;;7.20;99.90;;;;;;12354631;28;20213;-41
2021/04/02 10:33:26;;;;;;;7.55;3.10;;;7.10;99.90;;;;;;12342581;28;20100;-43
2021/04/02 10:39:27;;;;;;;9.75;2.70;;;7.40;99.90;;;;;;12337666;28;20732;-42
2021/04/02 10:52:54;;;;;;;;;;;7.30;99.90;;;;;;12343291;28;20486;-43
2021/04/02 10:58:56;;;;;;;9.77;2.72;;;7.30;99.90;;;;;;12351985;28;20020;-42
2021/04/02 11:04:59;;;;;;;10.98;2.65;;;7.10;99.90;;;;;;12362828;28;20106;-43
2021/04/02 11:11:00;;;;;;;16.33;5.53;;;6.90;99.90;;;;;;12357400;28;20128;-43
2021/04/02 11:17:02;;;;;;;10.40;2.60;;;6.80;99.90;;;;;;12347315;28;20613;-43
2021/04/02 11:23:03;;;;;;;7.57;2.30;;;6.60;99.90;;;;;;12358799;28;20550;-43
2021/04/02 11:29:05;;;;;;;12.10;4.70;;;6.60;99.90;;;;;;12361724;28;20120;-44
2021/04/02 11:35:08;;;;;;;11.38;4.18;;;6.70;99.90;;;;;;12374823;28;20535;-43
2021/04/02 11:41:10;;;;;;;13.10;4.97;;;7.00;99.90;;;;;;12361620;28;20177;-43
2021/04/02 11:47:11;;;;;;;8.93;2.50;;;7.60;99.90;;;;;;12377646;28;20088;-43
2021/04/02 11:53:12;;;;;;;10.13;2.63;;;7.70;99.90;;;;;;12366173;28;20054;-44
2021/04/02 11:59:15;;;;;;;9.10;2.60;;;7.60;99.90;;;;;;12364666;28;20073;-43
2021/04/02 12:05:20;;;;;;;9.32;3.00;;;7.30;99.90;;;;;;12353893;28;20066;-44
2021/04/02 12:11:22;;;;;;;8.60;2.35;;;7.40;99.90;;;;;;12359530;28;20050;-43
2021/04/02 12:17:24;;;;;;;6.90;2.13;;;7.40;99.90;;;;;;12371452;28;20149;-43
2021/04/02 12:23:25;;;;;;;10.45;2.47;;;7.40;99.90;;;;;;12368388;28;20129;-43
2021/04/02 12:29:28;;;;;;;6.00;1.92;;;7.40;99.90;;;;;;12359028;28;20042;-43
2021/04/02 12:35:31;;;;;;;5.78;2.53;;;7.50;99.90;;;;;;12349195;28;20137;-42
2021/04/02 12:41:32;;;;;;;11.80;2.72;;;7.60;99.90;;;;;;12363654;28;20134;-44
2021/04/02 12:47:34;;;;;;;12.57;2.30;;;7.60;99.90;;;;;;12370211;28;20054;-43
2021/04/02 12:53:36;;;;;;;9.55;2.38;;;8.10;99.90;;;;;;12364402;28;20096;-43
2021/04/02 12:59:37;;;;;;;7.57;1.80;;;8.20;99.90;;;;;;12359981;28;20369;-43
2021/04/02 13:05:40;;;;;;;10.07;2.08;;;8.40;99.90;;;;;;12357323;28;20101;-43
2021/04/02 13:11:42;;;;;;;11.35;2.40;;;8.50;99.90;;;;;;12356498;28;20050;-42
2021/04/02 13:17:45;;;;;;;10.25;2.40;;;8.20;99.90;;;;;;12354957;28;20165;-43
2021/04/02 13:23:47;;;;;;;12.50;2.27;;;8.20;99.90;;;;;;12353902;28;20058;-43
2021/04/02 13:29:48;;;;;;;12.75;2.35;;;8.10;99.90;;;;;;12344768;28;20062;-43
2021/04/02 13:35:50;;;;;;;11.68;2.70;;;8.00;99.90;;;;;;12342976;28;20042;-43
2021/04/02 13:41:51;;;;;;;9.07;1.88;;;7.90;99.90;;;;;;12350876;28;20154;-43
2021/04/02 13:47:53;;;;;;;9.55;2.00;;;8.30;99.90;;;;;;12358973;28;20581;-44
2021/04/02 13:53:55;;;;;;;11.55;2.10;;;8.10;99.90;;;;;;12356431;28;20108;-42
2021/04/02 13:59:56;;;;;;;12.63;1.85;;;7.80;99.90;;;;;;12353756;28;20058;-43
2021/04/02 14:05:58;;;;;;;8.73;2.80;;;7.50;99.90;;;;;;12360212;28;20046;-43
2021/04/02 14:12:00;;;;;;;9.15;2.63;;;7.40;99.90;;;;;;12346016;28;21467;-44
2021/04/02 14:18:06;;;;;;;9.82;2.20;;;7.10;99.90;;;;;;12348531;28;20141;-43
2021/04/02 14:24:08;;;;;;;8.52;2.40;;;7.00;99.90;;;;;;12351337;28;20152;-43
2021/04/02 14:30:17;;;;;;;15.65;2.35;;;7.10;99.90;;;;;;12349367;28;20059;-42
2021/04/02 14:36:19;;;;;;;12.32;2.60;;;7.10;99.90;;;;;;12344494;28;20045;-42
2021/04/02 14:42:20;;;;;;;13.68;2.85;;;7.10;99.90;;;;;;12349353;28;20137;-43
2021/04/02 14:48:21;;;;;;;8.63;2.67;;;7.20;99.90;;;;;;12347153;28;20180;-43
2021/04/02 14:54:23;;;;;;;6.40;1.98;;;7.20;99.90;;;;;;12362796;28;20089;-43
2021/04/02 15:00:26;;;;;;;7.53;2.20;;;7.20;99.90;;;;;;12362030;28;20217;-43
2021/04/02 15:06:27;;;;;;;9.82;2.15;;;7.20;99.90;;;;;;12367415;28;20054;-43
2021/04/02 15:12:29;;;;;;;12.27;2.45;;;7.20;99.90;;;;;;12369435;28;20584;-45
2021/04/02 15:18:30;;;;;;;13.27;1.95;;;7.20;99.90;;;;;;12352541;28;20052;-42
2021/04/02 15:24:32;;;;;;;7.25;1.95;;;7.40;99.90;;;;;;12349044;28;20077;-42
2021/04/02 15:30:34;;;;;;;9.48;2.08;;;7.60;99.90;;;;;;12355181;28;20086;-43
2021/04/02 15:36:36;;;;;;;5.28;1.70;;;7.60;99.90;;;;;;12350352;28;20550;-43
2021/04/02 15:42:37;;;;;;;6.38;1.95;;;7.70;99.90;;;;;;12364860;28;20175;-44
2021/04/02 15:48:38;;;;;;;12.13;1.67;;;7.50;99.90;;;;;;12362070;28;20125;-44
2021/04/02 15:54:40;;;;;;;7.10;1.67;;;7.40;99.90;;;;;;12361296;28;20050;-43
2021/04/02 16:00:43;;;;;;;7.45;1.60;;;7.40;99.90;;;;;;12365252;28;20534;-45
2021/04/02 16:06:45;;;;;;;9.90;2.08;;;7.40;99.90;;;;;;12351576;28;20185;-43
2021/04/02 16:12:46;;;;;;;6.82;1.60;;;7.30;99.90;;;;;;12354993;28;20053;-43
2021/04/02 16:18:47;;;;;;;8.60;1.60;;;7.40;99.90;;;;;;12353060;28;20065;-42
2021/04/02 16:24:49;;;;;;;10.40;2.15;;;7.30;99.90;;;;;;12350721;28;20053;-43
2021/04/02 16:30:50;;;;;;;8.95;1.75;;;7.30;99.90;;;;;;12355055;28;20890;-43
2021/04/02 16:36:52;;;;;;;9.75;1.80;;;7.20;99.90;;;;;;12361836;28;20136;-43
2021/04/02 16:42:53;;;;;;;6.10;1.70;;;7.40;99.90;;;;;;12349614;28;20137;-42
2021/04/02 16:48:54;;;;;;;8.05;1.80;;;7.30;99.90;;;;;;12350178;28;20070;-43
2021/04/02 16:54:56;;;;;;;8.48;1.85;;;7.30;99.90;;;;;;12346274;28;20085;-43
2021/04/02 17:00:59;;;;;;;6.25;1.70;;;7.20;99.90;;;;;;12345314;28;20042;-43
2021/04/02 17:07:00;;;;;;;9.40;1.42;;;7.20;99.90;;;;;;12352601;28;20137;-44
2021/04/02 17:13:02;;;;;;;5.40;1.60;;;7.10;99.90;;;;;;12341501;28;20077;-43
2021/04/02 17:19:03;;;;;;;6.85;1.40;;;7.20;99.90;;;;;;12344782;28;20060;-43
2021/04/02 17:25:07;;;;;;;6.55;1.30;;;7.20;99.90;;;;;;12347657;28;20165;-42
2021/04/02 17:31:08;;;;;;;3.08;1.08;;;7.10;99.90;;;;;;12354800;28;20481;-43
2021/04/02 17:37:10;;;;;;;6.72;1.30;;;6.90;99.90;;;;;;12349721;28;20046;-43
2021/04/02 17:43:11;;;;;;;5.60;1.25;;;7.00;99.90;;;;;;12341753;28;20251;-42
2021/04/02 17:49:13;;;;;;;4.38;1.30;;;6.90;99.90;;;;;;12339881;28;20072;-42
2021/04/02 17:55:17;;;;;;;3.47;1.02;;;6.80;99.90;;;;;;12344625;28;20471;-45
2021/04/02 18:01:18;;;;;;;3.00;0.90;;;6.90;99.90;;;;;;12352056;28;20069;-42
2021/04/02 18:07:20;;;;;;;6.18;1.17;;;6.80;99.90;;;;;;12355564;28;20162;-46
2021/04/02 18:13:21;;;;;;;6.55;1.50;;;6.50;99.90;;;;;;12357870;28;20049;-42
2021/04/02 18:19:22;;;;;;;8.80;2.92;;;6.50;99.90;;;;;;12343324;28;20150;-42
2021/04/02 18:25:24;;;;;;;4.40;1.42;;;6.50;99.90;;;;;;12346208;28;20530;-42
2021/04/02 18:31:25;;;;;;;3.80;1.30;;;6.50;99.90;;;;;;12359516;28;20149;-42
2021/04/02 18:37:27;;;;;;;5.78;2.80;;;6.50;99.90;;;;;;12368780;28;20145;-43
2021/04/02 18:43:29;;;;;;;6.00;2.10;;;6.30;99.90;;;;;;12360651;28;20149;-43
2021/04/02 18:49:32;;;;;;;4.97;1.67;;;6.30;99.90;;;;;;12358653;28;20105;-44
2021/04/02 18:55:34;;;;;;;8.98;2.33;;;6.30;99.90;;;;;;12351598;28;20149;-44
2021/04/02 19:01:35;;;;;;;9.13;2.30;;;6.30;99.90;;;;;;12350948;28;20057;-43
2021/04/02 19:07:37;;;;;;;6.05;2.47;;;6.30;99.90;;;;;;12346552;28;20478;-43
2021/04/02 19:13:38;;;;;;;7.07;2.30;;;6.40;99.90;;;;;;12351096;28;20130;-44
2021/04/02 19:19:40;;;;;;;5.50;2.13;;;6.20;99.90;;;;;;12344915;28;20169;-43
2021/04/02 19:25:42;;;;;;;5.85;2.35;;;6.10;99.90;;;;;;12344247;28;20141;-42
2021/04/02 19:31:43;;;;;;;9.25;3.00;;;5.90;99.90;;;;;;12356886;28;20165;-42
2021/04/02 19:37:45;;;;;;;7.85;2.90;;;5.90;99.90;;;;;;12358004;28;20047;-43
2021/04/02 19:43:47;;;;;;;15.15;4.05;;;5.80;99.90;;;;;;12349689;28;20097;-42
2021/04/02 19:49:48;;;;;;;10.25;4.22;;;5.80;99.90;;;;;;12350699;28;20045;-42
2021/04/02 19:55:51;;;;;;;16.88;4.85;;;5.80;99.90;;;;;;12350488;28;20050;-43
2021/04/02 20:01:52;;;;;;;15.60;4.75;;;5.80;99.90;;;;;;12354383;28;20050;-43
2021/04/02 20:07:54;;;;;;;15.10;4.47;;;5.70;99.90;;;;;;12355650;28;20046;-42
2021/04/02 20:13:55;;;;;;;16.80;4.97;;;5.70;99.90;;;;;;12355048;28;20057;-43
2021/04/02 20:19:57;;;;;;;14.68;5.03;;;5.60;99.90;;;;;;12355752;28;20054;-44
2021/04/02 20:25:59;;;;;;;12.65;5.38;;;5.50;99.90;;;;;;12351631;28;20050;-42
2021/04/02 20:32:01;;;;;;;17.42;4.55;;;5.50;99.90;;;;;;12353230;28;20587;-44
2021/04/02 20:38:03;;;;;;;13.95;5.70;;;5.40;99.90;;;;;;12357077;28;20157;-42
2021/04/02 20:44:05;;;;;;;17.17;5.10;;;5.40;99.90;;;;;;12355562;28;20077;-42
2021/04/02 20:50:09;;;;;;;14.57;5.30;;;5.40;99.90;;;;;;12356457;28;20056;-43
2021/04/02 20:56:10;;;;;;;17.97;5.43;;;5.40;99.90;;;;;;12354266;28;20490;-43
2021/04/02 21:02:12;;;;;;;21.13;5.60;;;5.60;99.90;;;;;;12344236;28;20908;-43
2021/04/02 21:08:13;;;;;;;16.25;5.47;;;5.60;99.90;;;;;;12354542;28;20082;-44
2021/04/02 21:14:14;;;;;;;24.25;5.70;;;5.60;99.90;;;;;;12346400;28;20057;-42
2021/04/02 21:20:19;;;;;;;22.50;5.45;;;5.60;99.90;;;;;;12352891;28;20957;-42
2021/04/02 21:26:20;;;;;;;22.20;5.28;;;5.70;99.90;;;;;;12355367;28;20145;-45
2021/04/02 21:32:21;;;;;;;23.98;6.55;;;5.60;99.90;;;;;;12350590;28;20145;-42
2021/04/02 21:38:23;;;;;;;21.63;6.47;;;5.50;99.90;;;;;;12351864;28;20085;-42
2021/04/02 21:44:24;;;;;;;21.38;5.63;;;5.50;99.90;;;;;;12346721;28;20050;-44
2021/04/02 21:50:28;;;;;;;20.02;5.55;;;5.60;99.90;;;;;;12349055;28;20089;-43
2021/04/02 21:56:30;;;;;;;20.25;5.57;;;5.60;99.90;;;;;;12353759;28;20141;-43
2021/04/02 22:02:31;;;;;;;15.15;6.38;;;5.60;99.90;;;;;;12349506;28;20637;-43
2021/04/02 22:08:33;;;;;;;19.77;5.95;;;5.70;99.90;;;;;;12345432;28;20062;-43
2021/04/02 22:14:35;;;;;;;16.83;5.40;;;5.70;99.90;;;;;;12346587;28;20132;-43
2021/04/02 22:20:37;;;;;;;22.08;5.10;;;5.70;99.90;;;;;;12350031;28;22061;-43
2021/04/02 22:26:38;;;;;;;26.77;5.47;;;5.80;99.90;;;;;;12343974;28;20145;-46
2021/04/02 22:32:41;;;;;;;25.45;5.43;;;5.70;99.90;;;;;;12350597;28;20042;-43
2021/04/02 22:38:44;;;;;;;19.00;5.20;;;5.60;99.90;;;;;;12343958;28;20051;-44
2021/04/02 22:44:45;;;;;;;23.20;4.68;;;5.50;99.90;;;;;;12345901;28;20077;-43
2021/04/02 22:50:49;;;;;;;15.95;4.75;;;5.40;99.90;;;;;;12352703;28;20566;-43
2021/04/02 22:56:50;;;;;;;20.23;4.83;;;5.40;99.90;;;;;;12352213;28;20050;-44
2021/04/02 23:02:52;;;;;;;14.00;4.85;;;5.50;99.90;;;;;;12347632;28;21354;-43
2021/04/02 23:08:54;;;;;;;24.63;4.38;;;5.40;99.90;;;;;;12345333;28;20170;-42
2021/04/02 23:14:56;;;;;;;17.10;4.60;;;5.40;99.90;;;;;;12348267;28;20591;-43
2021/04/02 23:20:57;;;;;;;19.77;4.43;;;5.20;99.90;;;;;;12345839;28;20046;-42
2021/04/02 23:26:59;;;;;;;18.05;4.10;;;5.30;99.90;;;;;;12355960;28;20160;-42
2021/04/02 23:33:11;;;;;;;21.65;4.70;;;5.20;99.90;;;;;;12358441;28;20085;-42
2021/04/02 23:39:13;;;;;;;14.15;3.53;;;5.10;99.90;;;;;;12356167;28;20291;-42
2021/04/02 23:45:14;;;;;;;15.90;3.13;;;5.00;99.90;;;;;;12350117;28;20617;-42
2021/04/02 23:51:16;;;;;;;20.13;4.28;;;4.90;99.90;;;;;;12355014;28;20145;-43
2021/04/02 23:57:17;;;;;;;18.90;4.18;;;4.80;99.90;;;;;;12356017;28;20063;-44
